Time;durP1;ratioP1;P1;durP2;ratioP2;P2;SDS_P1;SDS_P2;PMS_P1;PMS_P2;Temp;Humidity;BMP_temperature;BMP_pressure;BME280_temperature;BME280_humidity;BME280_pressure;Samples;Min_cycle;Max_cycle;Signal;HPM_P1;HPM_P2
2023/09/19 00:01:09;;;;;;;14.48;3.97;;;;;;;;;;5028450;28;20079;-69
2023/09/19 00:03:38;;;;;;;6.88;3.20;;;;;;;;;;5022117;28;20021;-70
2023/09/19 00:06:07;;;;;;;15.75;4.20;;;;;;;;;;5016561;28;20544;-69
2023/09/19 00:08:33;;;;;;;15.35;4.38;;;;;;;;;;5021897;28;20437;-69
2023/09/19 00:11:05;;;;;;;12.57;3.30;;;;;;;;;;5016006;28;20038;-70
2023/09/19 00:13:32;;;;;;;13.27;3.40;;;;;;;;;;5008391;28;20073;-69
2023/09/19 00:15:58;;;;;;;9.90;3.97;;;;;;;;;;5024969;28;20029;-68
2023/09/19 00:18:32;;;;;;;9.07;3.90;;;;;;;;;;5035789;28;20033;-68
2023/09/19 00:20:58;;;;;;;10.43;3.92;;;;;;;;;;5022694;28;20030;-69
2023/09/19 00:23:25;;;;;;;10.15;3.42;;;;;;;;;;5025396;28;20541;-69
2023/09/19 00:25:51;;;;;;;10.25;3.08;;;;;;;;;;5026343;28;20114;-69
2023/09/19 00:28:19;;;;;;;9.55;3.35;;;;;;;;;;5033733;28;20047;-68
2023/09/19 00:30:49;;;;;;;11.60;3.45;;;;;;;;;;5024777;28;20118;-68
2023/09/19 00:33:16;;;;;;;12.93;3.50;;;;;;;;;;5026682;28;20033;-67
2023/09/19 00:36:08;;;;;;;15.40;4.10;;;;;;;;;;5031909;28;20028;-68
2023/09/19 00:38:34;;;;;;;13.95;3.65;;;;;;;;;;5016308;28;20071;-67
2023/09/19 00:41:00;;;;;;;14.20;3.03;;;;;;;;;;5018877;28;20033;-67
2023/09/19 00:43:27;;;;;;;10.82;3.28;;;;;;;;;;5021513;28;20497;-68
2023/09/19 00:45:54;;;;;;;10.95;3.22;;;;;;;;;;5025691;28;20391;-67
2023/09/19 00:48:21;;;;;;;10.27;3.08;;;;;;;;;;5021277;28;20113;-66
2023/09/19 00:50:48;;;;;;;10.40;3.28;;;;;;;;;;5029477;28;20478;-68
2023/09/19 00:53:18;;;;;;;13.13;3.20;;;;;;;;;;5032963;28;20037;-67
2023/09/19 00:55:45;;;;;;;15.52;3.42;;;;;;;;;;5014828;28;20026;-68
2023/09/19 00:58:15;;;;;;;15.55;3.53;;;;;;;;;;5033629;28;20044;-71
2023/09/19 01:00:44;;;;;;;10.27;3.13;;;;;;;;;;5027942;28;20396;-69
2023/09/19 01:03:13;;;;;;;8.90;3.38;;;;;;;;;;5014266;28;20022;-69
2023/09/19 01:05:39;;;;;;;10.18;4.05;;;;;;;;;;5026331;28;20036;-68
2023/09/19 01:08:06;;;;;;;11.73;3.83;;;;;;;;;;5027703;28;20029;-68
2023/09/19 01:10:33;;;;;;;13.52;3.67;;;;;;;;;;5023022;28;20347;-68
2023/09/19 01:13:14;;;;;;;9.05;3.28;;;;;;;;;;5020801;28;20531;-68
2023/09/19 01:15:43;;;;;;;8.43;3.20;;;;;;;;;;5027618;28;20029;-68
2023/09/19 01:18:28;;;;;;;7.80;3.03;;;;;;;;;;5031096;28;20531;-69
2023/09/19 01:20:54;;;;;;;13.77;3.63;;;;;;;;;;5033153;28;20123;-67
2023/09/19 01:23:26;;;;;;;11.43;4.00;;;;;;;;;;5027975;28;20447;-69
2023/09/19 01:25:53;;;;;;;9.05;2.90;;;;;;;;;;5026460;28;20040;-68
2023/09/19 01:28:43;;;;;;;7.47;2.78;;;;;;;;;;5022775;28;20029;-71
2023/09/19 01:31:11;;;;;;;8.65;3.80;;;;;;;;;;5020128;28;20047;-73
2023/09/19 01:33:59;;;;;;;8.98;3.00;;;;;;;;;;5023739;28;20029;-70
2023/09/19 01:36:25;;;;;;;10.52;2.90;;;;;;;;;;5026341;28;20057;-70
2023/09/19 01:38:52;;;;;;;9.50;2.80;;;;;;;;;;5027480;28;20083;-71
2023/09/19 01:41:22;;;;;;;9.38;3.15;;;;;;;;;;5014010;28;20988;-71
2023/09/19 01:43:50;;;;;;;5.97;3.03;;;;;;;;;;5021696;28;20068;-70
2023/09/19 01:46:16;;;;;;;8.10;2.80;;;;;;;;;;5029349;28;20108;-69
2023/09/19 01:48:46;;;;;;;7.32;3.15;;;;;;;;;;5022388;28;20013;-69
2023/09/19 01:51:14;;;;;;;11.15;3.00;;;;;;;;;;5024622;28;20159;-71
2023/09/19 01:53:58;;;;;;;13.75;3.35;;;;;;;;;;5022014;28;20079;-70
2023/09/19 01:56:29;;;;;;;7.50;3.00;;;;;;;;;;5027011;28;20137;-69
2023/09/19 01:58:57;;;;;;;5.18;2.92;;;;;;;;;;5024138;28;20018;-69
2023/09/19 02:01:24;;;;;;;10.73;3.10;;;;;;;;;;5018900;28;20029;-67
2023/09/19 02:03:51;;;;;;;10.02;3.10;;;;;;;;;;5018168;28;20530;-68
2023/09/19 02:06:18;;;;;;;9.57;3.78;;;;;;;;;;5024800;28;20390;-69
2023/09/19 02:08:45;;;;;;;7.28;2.85;;;;;;;;;;5024371;28;20060;-68
2023/09/19 02:11:12;;;;;;;14.70;3.20;;;;;;;;;;5023483;28;20025;-68
2023/09/19 02:13:39;;;;;;;14.13;3.45;;;;;;;;;;5013569;28;20048;-68
2023/09/19 02:16:06;;;;;;;14.77;3.67;;;;;;;;;;5026417;28;20040;-66
2023/09/19 02:18:34;;;;;;;12.20;3.65;;;;;;;;;;5056871;28;20044;-67
2023/09/19 02:21:01;;;;;;;13.75;3.75;;;;;;;;;;5022676;28;20044;-68
2023/09/19 02:23:27;;;;;;;6.07;3.67;;;;;;;;;;5021801;28;20025;-69
2023/09/19 02:26:04;;;;;;;10.32;3.45;;;;;;;;;;5019069;28;20025;-70
2023/09/19 02:28:31;;;;;;;9.82;3.70;;;;;;;;;;5019174;28;20072;-70
2023/09/19 02:30:58;;;;;;;11.35;3.70;;;;;;;;;;5026398;28;20112;-72
2023/09/19 02:33:24;;;;;;;9.98;3.65;;;;;;;;;;5023726;28;20030;-70
2023/09/19 02:35:50;;;;;;;7.82;3.03;;;;;;;;;;5015125;28;20124;-70
2023/09/19 02:38:21;;;;;;;7.22;3.63;;;;;;;;;;5018209;28;20378;-68
2023/09/19 02:40:47;;;;;;;11.90;3.80;;;;;;;;;;5024932;28;20048;-68
2023/09/19 02:43:13;;;;;;;10.68;3.30;;;;;;;;;;5026279;28;20556;-68
2023/09/19 02:45:39;;;;;;;8.45;3.45;;;;;;;;;;5021129;28;20429;-67
2023/09/19 02:48:07;;;;;;;12.25;3.75;;;;;;;;;;5024232;28;21495;-67
2023/09/19 02:50:33;;;;;;;9.75;3.13;;;;;;;;;;5033782;28;20603;-68
2023/09/19 02:53:00;;;;;;;9.70;3.17;;;;;;;;;;5025202;28;20572;-68
2023/09/19 02:55:26;;;;;;;12.30;4.18;;;;;;;;;;5014056;28;20055;-69
2023/09/19 02:57:56;;;;;;;11.32;2.88;;;;;;;;;;5022848;28;20029;-68
2023/09/19 03:00:23;;;;;;;9.70;4.07;;;;;;;;;;5032637;28;20025;-68
2023/09/19 03:02:50;;;;;;;17.90;3.78;;;;;;;;;;5018615;28;20587;-71
2023/09/19 03:05:16;;;;;;;11.68;3.50;;;;;;;;;;5019386;28;20508;-69
2023/09/19 03:07:50;;;;;;;7.32;2.83;;;;;;;;;;5016963;28;21197;-69
2023/09/19 03:10:17;;;;;;;8.20;3.25;;;;;;;;;;5019031;28;20107;-69
2023/09/19 03:12:43;;;;;;;17.77;4.25;;;;;;;;;;5014193;28;20123;-69
2023/09/19 03:15:10;;;;;;;10.02;3.30;;;;;;;;;;5019113;28;20056;-70
2023/09/19 03:17:36;;;;;;;6.03;3.33;;;;;;;;;;5053632;28;20053;-69
2023/09/19 03:20:08;;;;;;;17.00;3.53;;;;;;;;;;5015535;28;20120;-69
2023/09/19 03:22:34;;;;;;;7.45;3.20;;;;;;;;;;5011906;28;20033;-70
2023/09/19 03:25:00;;;;;;;6.88;3.30;;;;;;;;;;5017371;28;20414;-70
2023/09/19 03:27:27;;;;;;;6.88;3.60;;;;;;;;;;5023527;28;20029;-70
2023/09/19 03:29:53;;;;;;;9.25;4.30;;;;;;;;;;5026356;28;20022;-70
2023/09/19 03:32:20;;;;;;;8.88;4.47;;;;;;;;;;5019764;28;20093;-69
2023/09/19 03:34:48;;;;;;;13.98;3.72;;;;;;;;;;5019401;28;20524;-69
2023/09/19 03:37:14;;;;;;;15.38;3.83;;;;;;;;;;5021912;28;20037;-69
2023/09/19 03:39:41;;;;;;;8.00;3.63;;;;;;;;;;5025418;28;20045;-69
2023/09/19 03:42:07;;;;;;;8.52;3.47;;;;;;;;;;5023227;28;20038;-69
2023/09/19 03:44:33;;;;;;;8.70;3.03;;;;;;;;;;5024640;28;20034;-71
2023/09/19 03:47:04;;;;;;;13.30;3.28;;;;;;;;;;5022571;28;20057;-69
2023/09/19 03:49:30;;;;;;;8.73;3.35;;;;;;;;;;5017383;28;20109;-68
2023/09/19 03:51:56;;;;;;;9.07;3.67;;;;;;;;;;5025704;28;20041;-67
2023/09/19 03:54:25;;;;;;;7.68;3.30;;;;;;;;;;5024633;28;20124;-68
2023/09/19 03:56:51;;;;;;;10.00;2.83;;;;;;;;;;5022645;28;20504;-68
2023/09/19 03:59:18;;;;;;;6.18;3.00;;;;;;;;;;5021590;28;20022;-69
2023/09/19 04:01:44;;;;;;;8.10;3.13;;;;;;;;;;5017031;28;20540;-71
2023/09/19 04:04:12;;;;;;;9.55;3.17;;;;;;;;;;5034300;28;20029;-70
2023/09/19 04:06:39;;;;;;;9.82;3.33;;;;;;;;;;5026899;28;20592;-68
2023/09/19 04:09:07;;;;;;;8.80;2.95;;;;;;;;;;5024512;28;20029;-67
2023/09/19 04:11:33;;;;;;;7.32;3.17;;;;;;;;;;5022140;28;20048;-68
2023/09/19 04:14:00;;;;;;;11.38;3.63;;;;;;;;;;5023369;28;20033;-68
2023/09/19 04:16:26;;;;;;;5.10;3.30;;;;;;;;;;5029407;28;20036;-69
2023/09/19 04:18:52;;;;;;;8.38;3.97;;;;;;;;;;5017587;28;20112;-67
2023/09/19 04:21:18;;;;;;;7.60;3.10;;;;;;;;;;5026840;28;20824;-68
2023/09/19 04:23:45;;;;;;;5.32;2.67;;;;;;;;;;5028315;28;20057;-69
2023/09/19 04:26:12;;;;;;;5.47;2.97;;;;;;;;;;5022645;28;20237;-69
2023/09/19 04:28:38;;;;;;;7.07;2.63;;;;;;;;;;5032463;28;20197;-69
2023/09/19 04:31:05;;;;;;;4.65;2.53;;;;;;;;;;5029174;28;20040;-68
2023/09/19 04:33:31;;;;;;;9.05;3.13;;;;;;;;;;5025928;28;20079;-68
2023/09/19 04:35:57;;;;;;;7.90;3.30;;;;;;;;;;5028020;28;20736;-68
2023/09/19 04:38:24;;;;;;;11.80;3.75;;;;;;;;;;5023015;28;20473;-68
2023/09/19 04:40:50;;;;;;;12.27;4.07;;;;;;;;;;5019251;28;20112;-69
2023/09/19 04:43:17;;;;;;;5.22;3.05;;;;;;;;;;5024961;28;20032;-67
2023/09/19 04:45:43;;;;;;;6.45;3.05;;;;;;;;;;5025927;28;20082;-67
2023/09/19 04:48:10;;;;;;;6.10;2.60;;;;;;;;;;5036872;28;20485;-68
2023/09/19 04:50:37;;;;;;;6.93;2.80;;;;;;;;;;5024593;28;20091;-67
2023/09/19 04:53:03;;;;;;;3.20;2.70;;;;;;;;;;5026520;28;20029;-68
2023/09/19 04:55:30;;;;;;;7.03;3.00;;;;;;;;;;5034815;28;20032;-68
2023/09/19 04:57:56;;;;;;;3.65;2.70;;;;;;;;;;5032323;28;20128;-69
2023/09/19 05:00:23;;;;;;;4.00;2.47;;;;;;;;;;5021782;28;20029;-68
2023/09/19 05:02:51;;;;;;;4.28;2.28;;;;;;;;;;5017176;28;20083;-68
2023/09/19 05:05:17;;;;;;;6.32;3.25;;;;;;;;;;5022830;28;20075;-68
2023/09/19 05:07:46;;;;;;;5.97;2.20;;;;;;;;;;5031601;28;20052;-67
2023/09/19 05:10:13;;;;;;;2.83;2.17;;;;;;;;;;5024917;28;20032;-69
2023/09/19 05:12:39;;;;;;;2.08;1.80;;;;;;;;;;5029345;28;20056;-67
2023/09/19 05:15:12;;;;;;;2.90;2.13;;;;;;;;;;5019076;28;20597;-69
2023/09/19 05:17:40;;;;;;;3.17;1.70;;;;;;;;;;5019519;28;20044;-66
2023/09/19 05:20:24;;;;;;;2.80;1.70;;;;;;;;;;5019551;28;20064;-62
2023/09/19 05:22:51;;;;;;;2.10;1.73;;;;;;;;;;5021626;28;20033;-63
2023/09/19 05:25:17;;;;;;;1.83;1.73;;;;;;;;;;5019047;28;20032;-64
2023/09/19 05:27:44;;;;;;;3.00;1.63;;;;;;;;;;5019988;28;20064;-64
2023/09/19 05:30:10;;;;;;;2.28;1.88;;;;;;;;;;5021223;28;20071;-63
2023/09/19 05:32:36;;;;;;;2.13;1.77;;;;;;;;;;5015843;28;20040;-63
2023/09/19 05:35:03;;;;;;;3.33;1.73;;;;;;;;;;5021900;28;20383;-63
2023/09/19 05:37:29;;;;;;;3.28;1.70;;;;;;;;;;5022113;28;20025;-63
2023/09/19 05:39:55;;;;;;;4.30;1.85;;;;;;;;;;5021681;28;20113;-64
2023/09/19 05:42:21;;;;;;;1.52;1.42;;;;;;;;;;5018156;28;20069;-63
2023/09/19 05:44:47;;;;;;;1.95;1.50;;;;;;;;;;5022086;28;20093;-64
2023/09/19 05:47:17;;;;;;;2.08;1.80;;;;;;;;;;5022266;28;20027;-64
2023/09/19 05:49:43;;;;;;;2.33;1.60;;;;;;;;;;5015998;28;20036;-64
2023/09/19 05:52:09;;;;;;;1.77;1.48;;;;;;;;;;5015825;28;20022;-63
2023/09/19 05:54:37;;;;;;;2.80;1.48;;;;;;;;;;5020783;28;20359;-64
2023/09/19 05:57:03;;;;;;;2.28;1.38;;;;;;;;;;5015941;28;20520;-64
2023/09/19 05:59:30;;;;;;;4.25;2.53;;;;;;;;;;5022091;28;20108;-63
2023/09/19 06:01:56;;;;;;;1.70;1.60;;;;;;;;;;5019481;28;20057;-63
2023/09/19 06:04:23;;;;;;;2.40;1.30;;;;;;;;;;5014462;28;20033;-64
2023/09/19 06:06:49;;;;;;;1.92;1.30;;;;;;;;;;5015640;28;20113;-64
2023/09/19 06:09:15;;;;;;;1.05;1.00;;;;;;;;;;5013140;28;20053;-63
2023/09/19 06:11:44;;;;;;;2.25;1.30;;;;;;;;;;5019438;28;20152;-64
2023/09/19 06:14:11;;;;;;;1.98;1.50;;;;;;;;;;5018552;28;20029;-63
2023/09/19 06:16:41;;;;;;;1.10;1.05;;;;;;;;;;5019569;28;20397;-63
2023/09/19 06:19:09;;;;;;;1.35;1.30;;;;;;;;;;5020347;28;20441;-63
2023/09/19 06:21:36;;;;;;;1.00;1.00;;;;;;;;;;5015035;28;20354;-64
2023/09/19 06:24:02;;;;;;;1.30;1.30;;;;;;;;;;5012161;28;22188;-64
2023/09/19 06:26:29;;;;;;;1.00;1.00;;;;;;;;;;5012198;28;20113;-64
2023/09/19 06:28:55;;;;;;;0.88;0.88;;;;;;;;;;5007144;28;20296;-63
2023/09/19 06:31:25;;;;;;;0.95;0.95;;;;;;;;;;5017078;28;20160;-64
2023/09/19 06:33:52;;;;;;;1.25;1.15;;;;;;;;;;5016497;28;20063;-64
2023/09/19 06:36:19;;;;;;;1.05;1.05;;;;;;;;;;5014050;28;20032;-64
2023/09/19 06:38:45;;;;;;;0.80;0.80;;;;;;;;;;5011951;28;20044;-63
2023/09/19 06:41:14;;;;;;;2.00;0.93;;;;;;;;;;5029227;28;20398;-64
2023/09/19 06:43:40;;;;;;;0.80;0.80;;;;;;;;;;5022951;28;20037;-64
2023/09/19 06:46:07;;;;;;;1.00;1.00;;;;;;;;;;5022502;28;20030;-64
2023/09/19 06:48:33;;;;;;;1.33;0.80;;;;;;;;;;5021178;28;20093;-64
2023/09/19 06:51:04;;;;;;;0.80;0.80;;;;;;;;;;5024164;28;20035;-63
2023/09/19 06:53:31;;;;;;;1.08;1.02;;;;;;;;;;5023291;28;20032;-64
2023/09/19 06:55:58;;;;;;;1.00;1.00;;;;;;;;;;5023949;28;20584;-64
2023/09/19 06:58:24;;;;;;;1.67;1.00;;;;;;;;;;5021497;28;20171;-63
2023/09/19 07:00:50;;;;;;;0.90;0.90;;;;;;;;;;5049487;28;20026;-64
2023/09/19 07:03:21;;;;;;;0.95;0.90;;;;;;;;;;5024479;28;20516;-63
2023/09/19 07:05:48;;;;;;;1.02;1.02;;;;;;;;;;5027741;28;20111;-64
2023/09/19 07:08:15;;;;;;;1.13;0.95;;;;;;;;;;5025302;28;20021;-63
2023/09/19 07:10:48;;;;;;;1.00;1.00;;;;;;;;;;5036707;28;20172;-64
2023/09/19 07:13:16;;;;;;;1.30;1.20;;;;;;;;;;5024830;28;20492;-64
2023/09/19 07:15:46;;;;;;;1.20;1.20;;;;;;;;;;5016828;28;20049;-64
2023/09/19 07:18:14;;;;;;;1.30;1.20;;;;;;;;;;5017527;28;20435;-64
2023/09/19 07:20:48;;;;;;;1.63;1.10;;;;;;;;;;5024875;28;20343;-63
2023/09/19 07:23:15;;;;;;;1.30;1.20;;;;;;;;;;5018564;28;20033;-64
2023/09/19 07:25:41;;;;;;;0.90;0.90;;;;;;;;;;5018714;28;20029;-63
2023/09/19 07:28:07;;;;;;;1.35;1.17;;;;;;;;;;5030279;28;20460;-64
2023/09/19 07:30:37;;;;;;;1.20;1.10;;;;;;;;;;5022377;28;20079;-64
2023/09/19 07:33:05;;;;;;;1.88;1.00;;;;;;;;;;5036229;28;20038;-64
2023/09/19 07:35:31;;;;;;;1.20;1.10;;;;;;;;;;5027086;28;20476;-64
2023/09/19 07:38:01;;;;;;;1.50;1.40;;;;;;;;;;5027188;28;20470;-64
2023/09/19 07:40:28;;;;;;;1.23;1.02;;;;;;;;;;5027911;28;20092;-64
2023/09/19 07:43:01;;;;;;;1.15;1.05;;;;;;;;;;5019448;28;20489;-64
2023/09/19 07:45:27;;;;;;;1.55;1.17;;;;;;;;;;5021888;28;20531;-63
2023/09/19 07:47:53;;;;;;;2.13;1.10;;;;;;;;;;5021939;28;20029;-63
2023/09/19 07:50:20;;;;;;;1.30;1.20;;;;;;;;;;5036228;28;20019;-63
2023/09/19 07:52:47;;;;;;;0.90;0.90;;;;;;;;;;5027930;28;20116;-64
2023/09/19 07:55:15;;;;;;;1.75;1.15;;;;;;;;;;5027061;28;20025;-63
2023/09/19 07:57:42;;;;;;;1.73;1.63;;;;;;;;;;5028702;28;20049;-64
2023/09/19 08:00:10;;;;;;;1.42;1.33;;;;;;;;;;5035737;28;20030;-64
2023/09/19 08:02:38;;;;;;;1.60;0.93;;;;;;;;;;5022300;28;20033;-63
2023/09/19 08:05:11;;;;;;;1.17;1.10;;;;;;;;;;5027666;28;20771;-64
2023/09/19 08:07:37;;;;;;;1.08;1.05;;;;;;;;;;5024406;28;20025;-63
2023/09/19 08:10:04;;;;;;;1.08;1.08;;;;;;;;;;5026443;28;20493;-63
2023/09/19 08:12:30;;;;;;;1.20;1.00;;;;;;;;;;5026014;28;20389;-64
2023/09/19 08:14:56;;;;;;;1.10;1.10;;;;;;;;;;5022563;28;20114;-64
2023/09/19 08:17:23;;;;;;;1.35;1.10;;;;;;;;;;5016429;28;20481;-64
2023/09/19 08:19:52;;;;;;;1.17;1.10;;;;;;;;;;5021898;28;20073;-62
2023/09/19 08:22:18;;;;;;;1.20;1.10;;;;;;;;;;5039283;28;20037;-64
2023/09/19 08:24:44;;;;;;;0.93;0.93;;;;;;;;;;5037085;28;20032;-64
2023/09/19 08:27:12;;;;;;;1.00;1.00;;;;;;;;;;5034426;28;20498;-64
2023/09/19 08:29:38;;;;;;;1.20;1.20;;;;;;;;;;5026953;28;20482;-64
2023/09/19 08:32:04;;;;;;;1.17;1.08;;;;;;;;;;5026619;28;20034;-64
2023/09/19 08:34:33;;;;;;;0.82;0.82;;;;;;;;;;5025497;28;20025;-64
2023/09/19 08:37:00;;;;;;;1.00;1.00;;;;;;;;;;5024943;28;20385;-63
2023/09/19 08:39:26;;;;;;;0.90;0.90;;;;;;;;;;5031711;28;20067;-64
2023/09/19 08:41:59;;;;;;;1.33;1.20;;;;;;;;;;5028799;28;21027;-64
2023/09/19 08:44:25;;;;;;;2.03;1.10;;;;;;;;;;5017740;28;20037;-64
2023/09/19 08:46:55;;;;;;;1.10;1.10;;;;;;;;;;5029116;28;20017;-64
2023/09/19 08:49:30;;;;;;;1.15;1.10;;;;;;;;;;5021497;28;20378;-63
2023/09/19 08:51:56;;;;;;;;;;;;;;;;;;5024189;28;20171;-63
2023/09/19 08:54:24;;;;;;;1.42;1.30;;;;;;;;;;5023431;28;19999;-63
2023/09/19 08:56:51;;;;;;;1.30;1.17;;;;;;;;;;5057348;28;20022;-64
2023/09/19 08:59:18;;;;;;;1.10;1.10;;;;;;;;;;5020212;28;20069;-63
2023/09/19 09:01:46;;;;;;;1.33;1.10;;;;;;;;;;5034002;28;20056;-63
2023/09/19 09:04:13;;;;;;;1.20;1.20;;;;;;;;;;5032941;28;20505;-64
2023/09/19 09:06:40;;;;;;;0.90;0.90;;;;;;;;;;5025448;28;20029;-63
2023/09/19 09:09:06;;;;;;;1.08;0.98;;;;;;;;;;5025850;28;20465;-63
2023/09/19 09:11:34;;;;;;;1.10;1.00;;;;;;;;;;5027172;28;20045;-63
2023/09/19 09:14:00;;;;;;;1.40;1.30;;;;;;;;;;5026455;28;20108;-63
2023/09/19 09:16:26;;;;;;;1.85;1.20;;;;;;;;;;5022681;28;20059;-63
2023/09/19 09:18:54;;;;;;;0.88;0.88;;;;;;;;;;5025827;28;20420;-63
2023/09/19 09:21:21;;;;;;;2.30;1.30;;;;;;;;;;5024521;28;20040;-63
2023/09/19 09:23:48;;;;;;;1.00;1.00;;;;;;;;;;5026240;28;20033;-63
2023/09/19 09:26:15;;;;;;;1.05;1.05;;;;;;;;;;5025195;28;20029;-63
2023/09/19 09:28:45;;;;;;;2.08;1.33;;;;;;;;;;5021967;28;20040;-63
2023/09/19 09:31:24;;;;;;;1.88;1.20;;;;;;;;;;5025266;28;20087;-63
2023/09/19 09:33:57;;;;;;;1.15;1.15;;;;;;;;;;5029839;28;20033;-63
2023/09/19 09:36:36;;;;;;;1.08;1.08;;;;;;;;;;5018847;28;20067;-63
2023/09/19 09:39:15;;;;;;;1.25;1.23;;;;;;;;;;5024742;28;20049;-63
2023/09/19 09:41:42;;;;;;;1.10;1.10;;;;;;;;;;5022693;28;20034;-63
2023/09/19 09:44:17;;;;;;;1.17;1.17;;;;;;;;;;5018289;28;20033;-64
2023/09/19 09:47:27;;;;;;;1.67;1.20;;;;;;;;;;5018057;28;20025;-62
2023/09/19 09:49:36;;;;;;;1.25;1.15;;;;;;;;;;5021549;28;20037;-64
2023/09/19 09:52:07;;;;;;;1.20;1.20;;;;;;;;;;5029567;28;20029;-63
2023/09/19 09:54:36;;;;;;;1.00;1.00;;;;;;;;;;5027647;28;20036;-63
2023/09/19 09:57:23;;;;;;;1.02;1.00;;;;;;;;;;5022692;28;20032;-64
2023/09/19 09:59:58;;;;;;;1.10;1.10;;;;;;;;;;5029407;28;20103;-64
2023/09/19 10:02:36;;;;;;;1.25;1.10;;;;;;;;;;5034794;28;20042;-63
2023/09/19 10:05:28;;;;;;;1.00;1.00;;;;;;;;;;5031001;28;20040;-64
2023/09/19 10:07:59;;;;;;;1.02;1.02;;;;;;;;;;5022835;28;20030;-63
2023/09/19 10:13:07;;;;;;;1.55;1.40;;;;;;;;;;5026043;28;20164;-64
2023/09/19 10:15:35;;;;;;;1.17;1.17;;;;;;;;;;5018080;28;20030;-63
2023/09/19 10:18:04;;;;;;;2.03;1.77;;;;;;;;;;5023309;28;20490;-63
2023/09/19 10:20:36;;;;;;;1.00;1.00;;;;;;;;;;5012917;28;20017;-63
2023/09/19 10:23:13;;;;;;;1.48;1.38;;;;;;;;;;5019585;28;20022;-63
2023/09/19 10:25:40;;;;;;;1.23;1.10;;;;;;;;;;5017934;28;20030;-64
2023/09/19 10:28:13;;;;;;;1.10;1.10;;;;;;;;;;5022228;28;20021;-63
2023/09/19 10:30:47;;;;;;;1.17;1.17;;;;;;;;;;5015123;28;20061;-64
2023/09/19 10:33:25;;;;;;;1.20;1.20;;;;;;;;;;5019004;28;20068;-61
2023/09/19 10:35:52;;;;;;;1.08;1.08;;;;;;;;;;5023233;28;20018;-64
2023/09/19 10:38:21;;;;;;;2.22;1.15;;;;;;;;;;5024419;28;20407;-64
2023/09/19 10:40:50;;;;;;;1.38;1.00;;;;;;;;;;5025864;28;20114;-64
2023/09/19 10:43:18;;;;;;;2.13;1.20;;;;;;;;;;5024282;28;20025;-62
2023/09/19 10:45:45;;;;;;;1.23;1.13;;;;;;;;;;5018648;28;20025;-62
2023/09/19 10:48:12;;;;;;;1.50;1.40;;;;;;;;;;5023376;28;20474;-63
2023/09/19 10:50:44;;;;;;;1.25;1.15;;;;;;;;;;5019494;28;20048;-62
2023/09/19 10:53:12;;;;;;;1.23;1.10;;;;;;;;;;5021877;28;20472;-62
2023/09/19 10:55:38;;;;;;;1.33;0.95;;;;;;;;;;5024647;28;20432;-62
2023/09/19 10:58:15;;;;;;;1.00;1.00;;;;;;;;;;5022300;28;20033;-61
2023/09/19 11:00:52;;;;;;;1.10;1.02;;;;;;;;;;5023771;28;20029;-61
2023/09/19 11:03:20;;;;;;;0.90;0.90;;;;;;;;;;5030892;28;20037;-62
2023/09/19 11:06:04;;;;;;;1.52;1.42;;;;;;;;;;5028384;28;20030;-61
2023/09/19 11:08:32;;;;;;;1.23;1.13;;;;;;;;;;5018982;28;20096;-62
2023/09/19 11:10:59;;;;;;;1.80;1.13;;;;;;;;;;5013460;28;20341;-61
2023/09/19 11:13:30;;;;;;;1.70;1.23;;;;;;;;;;5016136;28;20037;-62
2023/09/19 11:16:03;;;;;;;1.15;1.13;;;;;;;;;;5014199;28;20045;-61
2023/09/19 11:18:42;;;;;;;1.15;1.13;;;;;;;;;;5022394;28;20043;-61
2023/09/19 11:21:31;;;;;;;1.20;1.10;;;;;;;;;;5018465;28;20088;-62
2023/09/19 11:24:22;;;;;;;1.17;1.08;;;;;;;;;;5014246;28;20030;-61
2023/09/19 11:26:48;;;;;;;3.15;1.48;;;;;;;;;;5020901;28;20490;-62
2023/09/19 11:29:31;;;;;;;1.95;1.33;;;;;;;;;;5020022;28;20021;-61
2023/09/19 11:31:59;;;;;;;1.30;1.20;;;;;;;;;;5018963;28;20528;-61
2023/09/19 11:34:38;;;;;;;1.48;1.30;;;;;;;;;;5022093;28;20037;-61
2023/09/19 11:37:14;;;;;;;1.40;1.25;;;;;;;;;;5019850;28;20233;-61
2023/09/19 11:39:42;;;;;;;;;;;;;;;;;;5013539;28;20057;-62
2023/09/19 11:42:27;;;;;;;1.15;1.13;;;;;;;;;;5020354;28;20527;-62
2023/09/19 11:44:55;;;;;;;1.88;1.30;;;;;;;;;;5020471;28;20026;-62
2023/09/19 11:47:25;;;;;;;1.27;1.25;;;;;;;;;;5022914;28;20034;-62
2023/09/19 11:49:53;;;;;;;1.02;1.02;;;;;;;;;;5020195;28;20034;-62
2023/09/19 11:52:25;;;;;;;1.40;1.30;;;;;;;;;;5019397;28;20382;-62
2023/09/19 11:54:56;;;;;;;1.75;1.63;;;;;;;;;;5014975;28;20419;-62
2023/09/19 11:57:23;;;;;;;1.38;1.27;;;;;;;;;;5020544;28;20099;-64
2023/09/19 11:59:50;;;;;;;2.05;1.30;;;;;;;;;;5023778;28;20026;-63
2023/09/19 12:02:28;;;;;;;1.40;1.30;;;;;;;;;;5021810;28;20036;-63
2023/09/19 12:04:55;;;;;;;2.03;1.17;;;;;;;;;;5029563;28;20445;-63
2023/09/19 12:07:21;;;;;;;1.42;1.33;;;;;;;;;;5018874;28;20415;-63
2023/09/19 12:10:03;;;;;;;3.42;1.75;;;;;;;;;;5015038;28;20030;-63
2023/09/19 12:12:30;;;;;;;1.80;1.70;;;;;;;;;;5028319;28;20037;-63
2023/09/19 12:14:59;;;;;;;3.72;2.00;;;;;;;;;;5026526;28;20473;-64
2023/09/19 12:17:39;;;;;;;3.10;1.52;;;;;;;;;;5024482;28;20048;-64
2023/09/19 12:20:15;;;;;;;2.55;1.60;;;;;;;;;;5023034;28;20025;-64
2023/09/19 12:22:43;;;;;;;2.33;1.50;;;;;;;;;;5023762;28;20381;-64
2023/09/19 12:25:11;;;;;;;1.98;1.70;;;;;;;;;;5025070;28;20030;-64
2023/09/19 12:27:44;;;;;;;2.60;1.90;;;;;;;;;;5022649;28;20030;-63
2023/09/19 12:30:14;;;;;;;2.22;1.58;;;;;;;;;;5037093;28;20025;-63
2023/09/19 12:32:40;;;;;;;2.97;1.80;;;;;;;;;;5025838;28;20025;-64
2023/09/19 12:35:20;;;;;;;3.20;1.77;;;;;;;;;;5025467;28;20036;-64
2023/09/19 12:37:52;;;;;;;2.20;1.67;;;;;;;;;;5022407;28;20030;-64
2023/09/19 12:40:27;;;;;;;1.63;1.45;;;;;;;;;;5030523;28;20486;-64
2023/09/19 12:43:04;;;;;;;3.25;1.92;;;;;;;;;;5024577;28;20481;-64
2023/09/19 12:45:30;;;;;;;2.67;1.80;;;;;;;;;;5025562;28;20036;-66
2023/09/19 12:48:15;;;;;;;3.72;2.00;;;;;;;;;;5024239;28;20026;-64
2023/09/19 12:51:05;;;;;;;1.92;1.63;;;;;;;;;;5017566;28;20050;-63
2023/09/19 12:53:33;;;;;;;3.78;2.13;;;;;;;;;;5023853;28;20400;-64
2023/09/19 12:56:00;;;;;;;3.08;1.90;;;;;;;;;;5019704;28;20035;-64
2023/09/19 12:58:26;;;;;;;2.95;2.10;;;;;;;;;;5023924;28;20026;-65
2023/09/19 13:00:53;;;;;;;3.75;2.10;;;;;;;;;;5024433;28;20029;-64
2023/09/19 13:03:32;;;;;;;7.78;4.53;;;;;;;;;;5031108;28;20504;-64
2023/09/19 13:06:00;;;;;;;7.13;4.82;;;;;;;;;;5031099;28;20536;-65
2023/09/19 13:08:32;;;;;;;7.20;4.82;;;;;;;;;;5026770;28;20025;-64
2023/09/19 13:11:01;;;;;;;4.30;3.08;;;;;;;;;;5012527;28;20108;-65
2023/09/19 13:13:28;;;;;;;3.92;2.53;;;;;;;;;;5015671;28;20030;-65
2023/09/19 13:15:57;;;;;;;6.40;2.97;;;;;;;;;;5014360;28;20168;-64
2023/09/19 13:18:25;;;;;;;2.92;2.13;;;;;;;;;;5020475;28;20030;-65
2023/09/19 13:21:22;;;;;;;4.03;2.15;;;;;;;;;;5024280;28;20117;-64
2023/09/19 13:23:51;;;;;;;2.83;1.90;;;;;;;;;;5010893;28;20048;-64
2023/09/19 13:26:19;;;;;;;3.28;1.70;;;;;;;;;;5021631;28;20021;-65
2023/09/19 13:28:47;;;;;;;1.80;1.50;;;;;;;;;;5025332;28;20068;-66
2023/09/19 13:31:14;;;;;;;2.92;1.70;;;;;;;;;;5028851;28;20037;-64
2023/09/19 13:33:46;;;;;;;2.25;1.60;;;;;;;;;;5025473;28;20029;-64
2023/09/19 13:36:13;;;;;;;2.13;1.60;;;;;;;;;;5030963;28;20636;-65
2023/09/19 13:38:42;;;;;;;2.10;1.58;;;;;;;;;;5026205;28;20461;-65
2023/09/19 13:41:10;;;;;;;6.05;2.00;;;;;;;;;;5037469;28;20126;-65
2023/09/19 13:43:36;;;;;;;4.22;2.08;;;;;;;;;;5022946;28;20516;-65
2023/09/19 13:46:03;;;;;;;6.93;2.22;;;;;;;;;;5013937;28;20113;-66
2023/09/19 13:48:29;;;;;;;4.22;2.03;;;;;;;;;;5024068;28;20346;-65
2023/09/19 13:50:55;;;;;;;4.20;1.75;;;;;;;;;;5023961;28;20516;-65
2023/09/19 13:53:22;;;;;;;3.55;2.10;;;;;;;;;;5019206;28;20042;-65
2023/09/19 13:55:51;;;;;;;4.05;1.98;;;;;;;;;;5023484;28;20125;-65
2023/09/19 13:58:17;;;;;;;3.38;1.75;;;;;;;;;;5023032;28;20075;-65
2023/09/19 14:00:43;;;;;;;4.68;2.05;;;;;;;;;;5030595;28;20091;-65
2023/09/19 14:03:10;;;;;;;3.38;1.90;;;;;;;;;;5033570;28;20721;-65
2023/09/19 14:05:37;;;;;;;4.05;1.80;;;;;;;;;;5029249;28;20458;-65
2023/09/19 14:08:03;;;;;;;4.25;1.80;;;;;;;;;;5017762;28;20029;-66
2023/09/19 14:10:31;;;;;;;3.45;2.15;;;;;;;;;;5026939;28;20068;-66
2023/09/19 14:12:59;;;;;;;5.13;1.90;;;;;;;;;;5022282;28;20017;-66
2023/09/19 14:15:29;;;;;;;2.80;1.88;;;;;;;;;;5023134;28;20524;-66
2023/09/19 14:17:56;;;;;;;4.47;2.10;;;;;;;;;;5015388;28;20017;-67
2023/09/19 14:20:23;;;;;;;2.53;1.77;;;;;;;;;;5024233;28;20060;-66
2023/09/19 14:22:49;;;;;;;3.50;2.17;;;;;;;;;;5011634;28;20423;-66
2023/09/19 14:25:15;;;;;;;3.50;2.03;;;;;;;;;;5054838;28;20150;-66
2023/09/19 14:27:41;;;;;;;2.83;2.00;;;;;;;;;;5013790;28;20026;-66
2023/09/19 14:30:09;;;;;;;6.50;4.00;;;;;;;;;;5018507;28;20108;-66
2023/09/19 14:32:35;;;;;;;6.30;2.50;;;;;;;;;;5028199;28;20033;-66
2023/09/19 14:35:02;;;;;;;3.58;2.30;;;;;;;;;;5022478;28;20025;-66
2023/09/19 14:37:28;;;;;;;4.10;2.78;;;;;;;;;;5024313;28;20026;-66
2023/09/19 14:39:54;;;;;;;4.53;3.63;;;;;;;;;;5027515;28;20021;-66
2023/09/19 14:42:21;;;;;;;5.57;2.55;;;;;;;;;;5024270;28;20120;-66
2023/09/19 14:44:50;;;;;;;6.45;2.30;;;;;;;;;;5026336;28;20051;-67
2023/09/19 14:47:16;;;;;;;4.13;2.38;;;;;;;;;;5020984;28;20026;-65
2023/09/19 14:49:42;;;;;;;3.78;1.90;;;;;;;;;;5024041;28;20052;-65
2023/09/19 14:52:10;;;;;;;5.50;2.45;;;;;;;;;;5022237;28;20032;-66
2023/09/19 14:54:37;;;;;;;4.88;2.53;;;;;;;;;;5023129;28;20029;-67